sensor_id;sensor_type;location;lat;lon;timestamp;P1;durP1;ratioP1;P2;durP2;ratioP2
2750;SDS011;1383;48.362;10.908;2023-02-28T00:01:21;4.40;;;2.80;;
2750;SDS011;1383;48.362;10.908;2023-02-28T00:03:49;4.13;;;3.08;;
2750;SDS011;1383;48.362;10.908;2023-02-28T00:06:16;4.75;;;3.45;;
2750;SDS011;1383;48.362;10.908;2023-02-28T00:08:43;4.18;;;3.58;;
2750;SDS011;1383;48.362;10.908;2023-02-28T00:11:11;3.25;;;2.55;;
2750;SDS011;1383;48.362;10.908;2023-02-28T00:13:40;3.47;;;3.17;;
2750;SDS011;1383;48.362;10.908;2023-02-28T00:16:09;3.78;;;3.40;;
2750;SDS011;1383;48.362;10.908;2023-02-28T00:18:39;3.83;;;3.40;;
2750;SDS011;1383;48.362;10.908;2023-02-28T00:21:06;4.60;;;3.22;;
2750;SDS011;1383;48.362;10.908;2023-02-28T00:23:33;3.85;;;3.55;;
2750;SDS011;1383;48.362;10.908;2023-02-28T00:26:01;3.22;;;2.90;;
2750;SDS011;1383;48.362;10.908;2023-02-28T00:28:28;4.68;;;3.58;;
2750;SDS011;1383;48.362;10.908;2023-02-28T00:30:55;6.43;;;4.10;;
2750;SDS011;1383;48.362;10.908;2023-02-28T00:33:23;7.93;;;3.15;;
2750;SDS011;1383;48.362;10.908;2023-02-28T00:35:50;3.60;;;3.08;;
2750;SDS011;1383;48.362;10.908;2023-02-28T00:38:17;4.40;;;2.72;;
2750;SDS011;1383;48.362;10.908;2023-02-28T00:40:44;3.47;;;3.17;;
2750;SDS011;1383;48.362;10.908;2023-02-28T00:43:11;4.63;;;3.30;;
2750;SDS011;1383;48.362;10.908;2023-02-28T00:45:37;4.88;;;3.55;;
2750;SDS011;1383;48.362;10.908;2023-02-28T00:48:04;4.03;;;3.25;;
2750;SDS011;1383;48.362;10.908;2023-02-28T00:50:32;4.95;;;4.50;;
2750;SDS011;1383;48.362;10.908;2023-02-28T00:52:59;3.63;;;3.33;;
2750;SDS011;1383;48.362;10.908;2023-02-28T00:55:25;3.97;;;3.63;;
2750;SDS011;1383;48.362;10.908;2023-02-28T00:57:52;4.53;;;3.83;;
2750;SDS011;1383;48.362;10.908;2023-02-28T01:00:19;3.25;;;2.70;;
2750;SDS011;1383;48.362;10.908;2023-02-28T01:02:46;3.97;;;3.58;;
2750;SDS011;1383;48.362;10.908;2023-02-28T01:05:13;3.83;;;3.35;;
2750;SDS011;1383;48.362;10.908;2023-02-28T01:07:39;4.05;;;3.55;;
2750;SDS011;1383;48.362;10.908;2023-02-28T01:10:06;5.32;;;3.70;;
2750;SDS011;1383;48.362;10.908;2023-02-28T01:12:34;3.95;;;3.50;;
2750;SDS011;1383;48.362;10.908;2023-02-28T01:15:01;4.72;;;3.70;;
2750;SDS011;1383;48.362;10.908;2023-02-28T01:17:27;6.85;;;3.78;;
2750;SDS011;1383;48.362;10.908;2023-02-28T01:19:54;8.65;;;4.65;;
2750;SDS011;1383;48.362;10.908;2023-02-28T01:22:22;4.93;;;4.00;;
2750;SDS011;1383;48.362;10.908;2023-02-28T01:24:49;4.80;;;3.90;;
2750;SDS011;1383;48.362;10.908;2023-02-28T01:27:15;3.75;;;2.90;;
2750;SDS011;1383;48.362;10.908;2023-02-28T01:29:42;3.85;;;3.38;;
2750;SDS011;1383;48.362;10.908;2023-02-28T01:32:09;4.97;;;3.60;;
2750;SDS011;1383;48.362;10.908;2023-02-28T01:34:36;3.88;;;3.58;;
2750;SDS011;1383;48.362;10.908;2023-02-28T01:37:03;3.95;;;3.53;;
2750;SDS011;1383;48.362;10.908;2023-02-28T01:39:30;4.32;;;3.80;;
2750;SDS011;1383;48.362;10.908;2023-02-28T01:41:57;5.13;;;3.88;;
2750;SDS011;1383;48.362;10.908;2023-02-28T01:47:46;5.63;;;4.15;;
2750;SDS011;1383;48.362;10.908;2023-02-28T01:50:21;6.97;;;3.42;;
2750;SDS011;1383;48.362;10.908;2023-02-28T01:52:51;4.72;;;3.28;;
2750;SDS011;1383;48.362;10.908;2023-02-28T01:55:20;3.75;;;3.10;;
2750;SDS011;1383;48.362;10.908;2023-02-28T01:57:51;4.65;;;3.25;;
2750;SDS011;1383;48.362;10.908;2023-02-28T02:00:22;5.10;;;4.70;;
2750;SDS011;1383;48.362;10.908;2023-02-28T02:02:53;4.95;;;3.35;;
2750;SDS011;1383;48.362;10.908;2023-02-28T02:05:26;6.18;;;3.90;;
2750;SDS011;1383;48.362;10.908;2023-02-28T02:07:58;6.15;;;3.65;;
2750;SDS011;1383;48.362;10.908;2023-02-28T02:10:30;7.88;;;3.78;;
2750;SDS011;1383;48.362;10.908;2023-02-28T02:15:36;4.68;;;3.72;;
2750;SDS011;1383;48.362;10.908;2023-02-28T02:18:13;4.40;;;3.55;;
2750;SDS011;1383;48.362;10.908;2023-02-28T02:23:53;3.70;;;3.40;;
2750;SDS011;1383;48.362;10.908;2023-02-28T02:33:02;5.40;;;3.42;;
2750;SDS011;1383;48.362;10.908;2023-02-28T02:35:31;5.22;;;3.70;;
2750;SDS011;1383;48.362;10.908;2023-02-28T02:46:17;5.75;;;4.47;;
2750;SDS011;1383;48.362;10.908;2023-02-28T02:48:52;4.95;;;4.10;;
2750;SDS011;1383;48.362;10.908;2023-02-28T02:51:23;5.70;;;3.60;;
2750;SDS011;1383;48.362;10.908;2023-02-28T02:53:52;5.68;;;4.18;;
2750;SDS011;1383;48.362;10.908;2023-02-28T02:56:23;9.07;;;4.50;;
2750;SDS011;1383;48.362;10.908;2023-02-28T02:58:54;4.65;;;4.13;;
2750;SDS011;1383;48.362;10.908;2023-02-28T03:01:26;5.15;;;4.60;;
2750;SDS011;1383;48.362;10.908;2023-02-28T03:03:57;5.68;;;4.60;;
2750;SDS011;1383;48.362;10.908;2023-02-28T03:06:27;4.28;;;3.85;;
2750;SDS011;1383;48.362;10.908;2023-02-28T03:08:54;5.20;;;4.45;;
2750;SDS011;1383;48.362;10.908;2023-02-28T03:11:21;8.25;;;5.07;;
2750;SDS011;1383;48.362;10.908;2023-02-28T03:23:19;7.38;;;5.50;;
2750;SDS011;1383;48.362;10.908;2023-02-28T03:28:32;3.30;;;3.00;;
2750;SDS011;1383;48.362;10.908;2023-02-28T03:31:15;9.40;;;5.90;;
2750;SDS011;1383;48.362;10.908;2023-02-28T03:33:50;7.65;;;6.15;;
2750;SDS011;1383;48.362;10.908;2023-02-28T03:36:22;8.88;;;6.57;;
2750;SDS011;1383;48.362;10.908;2023-02-28T03:41:36;8.05;;;5.45;;
2750;SDS011;1383;48.362;10.908;2023-02-28T03:44:18;10.23;;;5.45;;
2750;SDS011;1383;48.362;10.908;2023-02-28T03:46:52;6.75;;;5.55;;
2750;SDS011;1383;48.362;10.908;2023-02-28T03:49:32;6.45;;;5.40;;
2750;SDS011;1383;48.362;10.908;2023-02-28T03:52:05;7.97;;;5.53;;
2750;SDS011;1383;48.362;10.908;2023-02-28T03:54:35;6.88;;;4.85;;
2750;SDS011;1383;48.362;10.908;2023-02-28T03:59:56;8.80;;;6.72;;
2750;SDS011;1383;48.362;10.908;2023-02-28T04:02:30;7.20;;;6.50;;
2750;SDS011;1383;48.362;10.908;2023-02-28T04:04:57;12.77;;;5.75;;
2750;SDS011;1383;48.362;10.908;2023-02-28T04:07:28;5.50;;;4.75;;
2750;SDS011;1383;48.362;10.908;2023-02-28T04:10:03;7.20;;;5.38;;
2750;SDS011;1383;48.362;10.908;2023-02-28T04:12:30;6.28;;;5.43;;
2750;SDS011;1383;48.362;10.908;2023-02-28T04:14:57;5.90;;;4.70;;
2750;SDS011;1383;48.362;10.908;2023-02-28T04:17:24;9.82;;;5.88;;
2750;SDS011;1383;48.362;10.908;2023-02-28T04:19:51;9.52;;;6.00;;
2750;SDS011;1383;48.362;10.908;2023-02-28T04:22:17;6.95;;;6.10;;
2750;SDS011;1383;48.362;10.908;2023-02-28T04:24:44;8.10;;;6.15;;
2750;SDS011;1383;48.362;10.908;2023-02-28T04:27:11;7.90;;;6.88;;
2750;SDS011;1383;48.362;10.908;2023-02-28T04:29:38;9.52;;;7.40;;
2750;SDS011;1383;48.362;10.908;2023-02-28T04:32:05;8.88;;;6.63;;
2750;SDS011;1383;48.362;10.908;2023-02-28T04:34:32;7.85;;;6.38;;
2750;SDS011;1383;48.362;10.908;2023-02-28T04:36:59;9.07;;;6.20;;
2750;SDS011;1383;48.362;10.908;2023-02-28T04:39:42;5.93;;;5.32;;
2750;SDS011;1383;48.362;10.908;2023-02-28T04:42:09;9.38;;;7.40;;
2750;SDS011;1383;48.362;10.908;2023-02-28T04:44:36;7.47;;;5.80;;
2750;SDS011;1383;48.362;10.908;2023-02-28T04:47:03;9.57;;;6.85;;
2750;SDS011;1383;48.362;10.908;2023-02-28T04:49:30;8.95;;;6.38;;
2750;SDS011;1383;48.362;10.908;2023-02-28T04:51:57;6.95;;;6.25;;
2750;SDS011;1383;48.362;10.908;2023-02-28T04:54:24;12.55;;;7.50;;
2750;SDS011;1383;48.362;10.908;2023-02-28T04:56:51;6.75;;;4.18;;
2750;SDS011;1383;48.362;10.908;2023-02-28T04:59:17;8.07;;;7.28;;
2750;SDS011;1383;48.362;10.908;2023-02-28T05:01:48;10.50;;;7.63;;
2750;SDS011;1383;48.362;10.908;2023-02-28T05:04:15;11.18;;;7.03;;
2750;SDS011;1383;48.362;10.908;2023-02-28T05:06:42;9.43;;;7.10;;
2750;SDS011;1383;48.362;10.908;2023-02-28T05:09:09;7.70;;;5.78;;
2750;SDS011;1383;48.362;10.908;2023-02-28T05:11:38;9.70;;;6.35;;
2750;SDS011;1383;48.362;10.908;2023-02-28T05:14:12;8.65;;;5.93;;
2750;SDS011;1383;48.362;10.908;2023-02-28T05:16:40;8.90;;;7.97;;
2750;SDS011;1383;48.362;10.908;2023-02-28T05:19:07;13.57;;;7.43;;
2750;SDS011;1383;48.362;10.908;2023-02-28T05:21:35;8.82;;;6.50;;
2750;SDS011;1383;48.362;10.908;2023-02-28T05:24:09;12.13;;;6.85;;
2750;SDS011;1383;48.362;10.908;2023-02-28T05:26:38;12.15;;;7.97;;
2750;SDS011;1383;48.362;10.908;2023-02-28T05:29:09;8.95;;;7.57;;
2750;SDS011;1383;48.362;10.908;2023-02-28T05:31:36;13.48;;;7.78;;
2750;SDS011;1383;48.362;10.908;2023-02-28T05:34:03;8.82;;;6.80;;
2750;SDS011;1383;48.362;10.908;2023-02-28T05:36:30;8.52;;;6.63;;
2750;SDS011;1383;48.362;10.908;2023-02-28T05:38:57;10.85;;;7.82;;
2750;SDS011;1383;48.362;10.908;2023-02-28T05:41:24;13.68;;;7.15;;
2750;SDS011;1383;48.362;10.908;2023-02-28T05:43:52;11.55;;;7.30;;
2750;SDS011;1383;48.362;10.908;2023-02-28T05:46:19;13.88;;;7.43;;
2750;SDS011;1383;48.362;10.908;2023-02-28T05:48:46;10.07;;;6.90;;
2750;SDS011;1383;48.362;10.908;2023-02-28T05:51:14;11.15;;;8.23;;
2750;SDS011;1383;48.362;10.908;2023-02-28T05:53:41;8.55;;;6.72;;
2750;SDS011;1383;48.362;10.908;2023-02-28T05:56:07;8.48;;;6.07;;
2750;SDS011;1383;48.362;10.908;2023-02-28T05:58:34;13.95;;;7.63;;
2750;SDS011;1383;48.362;10.908;2023-02-28T06:01:18;9.82;;;7.95;;
2750;SDS011;1383;48.362;10.908;2023-02-28T06:03:49;10.63;;;8.07;;
2750;SDS011;1383;48.362;10.908;2023-02-28T06:06:16;12.40;;;8.35;;
2750;SDS011;1383;48.362;10.908;2023-02-28T06:08:43;9.88;;;8.38;;
2750;SDS011;1383;48.362;10.908;2023-02-28T06:11:10;9.52;;;7.78;;
2750;SDS011;1383;48.362;10.908;2023-02-28T06:13:38;9.73;;;8.00;;
2750;SDS011;1383;48.362;10.908;2023-02-28T06:16:05;12.38;;;8.43;;
2750;SDS011;1383;48.362;10.908;2023-02-28T06:18:31;11.15;;;8.88;;
2750;SDS011;1383;48.362;10.908;2023-02-28T06:20:58;11.25;;;8.38;;
2750;SDS011;1383;48.362;10.908;2023-02-28T06:23:25;7.25;;;6.13;;
2750;SDS011;1383;48.362;10.908;2023-02-28T06:25:52;12.02;;;9.40;;
2750;SDS011;1383;48.362;10.908;2023-02-28T06:28:19;12.48;;;7.70;;
2750;SDS011;1383;48.362;10.908;2023-02-28T06:30:46;9.95;;;7.72;;
2750;SDS011;1383;48.362;10.908;2023-02-28T06:33:13;11.32;;;7.28;;
2750;SDS011;1383;48.362;10.908;2023-02-28T06:35:40;12.30;;;9.20;;
2750;SDS011;1383;48.362;10.908;2023-02-28T06:38:10;12.57;;;8.30;;
2750;SDS011;1383;48.362;10.908;2023-02-28T06:40:37;14.07;;;8.20;;
2750;SDS011;1383;48.362;10.908;2023-02-28T06:43:03;9.32;;;8.13;;
2750;SDS011;1383;48.362;10.908;2023-02-28T06:45:30;12.48;;;9.35;;
2750;SDS011;1383;48.362;10.908;2023-02-28T06:47:57;8.15;;;7.35;;
2750;SDS011;1383;48.362;10.908;2023-02-28T06:50:24;16.63;;;8.90;;
2750;SDS011;1383;48.362;10.908;2023-02-28T06:52:51;10.13;;;8.93;;
2750;SDS011;1383;48.362;10.908;2023-02-28T06:55:20;14.40;;;8.40;;
2750;SDS011;1383;48.362;10.908;2023-02-28T06:57:46;12.40;;;7.07;;
2750;SDS011;1383;48.362;10.908;2023-02-28T07:00:14;8.80;;;6.40;;
2750;SDS011;1383;48.362;10.908;2023-02-28T07:02:41;11.68;;;10.00;;
2750;SDS011;1383;48.362;10.908;2023-02-28T07:05:08;10.98;;;6.53;;
2750;SDS011;1383;48.362;10.908;2023-02-28T07:07:35;10.07;;;8.35;;
2750;SDS011;1383;48.362;10.908;2023-02-28T07:10:04;14.48;;;9.35;;
2750;SDS011;1383;48.362;10.908;2023-02-28T07:12:31;9.55;;;7.80;;
2750;SDS011;1383;48.362;10.908;2023-02-28T07:14:58;11.00;;;7.25;;
2750;SDS011;1383;48.362;10.908;2023-02-28T07:17:25;10.80;;;7.85;;
2750;SDS011;1383;48.362;10.908;2023-02-28T07:19:52;11.07;;;8.55;;
2750;SDS011;1383;48.362;10.908;2023-02-28T07:22:18;8.70;;;7.78;;
2750;SDS011;1383;48.362;10.908;2023-02-28T07:24:45;13.32;;;9.27;;
2750;SDS011;1383;48.362;10.908;2023-02-28T07:27:12;12.93;;;8.35;;
2750;SDS011;1383;48.362;10.908;2023-02-28T07:29:52;14.98;;;9.15;;
2750;SDS011;1383;48.362;10.908;2023-02-28T07:32:19;11.77;;;8.43;;
2750;SDS011;1383;48.362;10.908;2023-02-28T07:34:46;12.48;;;7.95;;
2750;SDS011;1383;48.362;10.908;2023-02-28T07:37:13;11.88;;;8.30;;
2750;SDS011;1383;48.362;10.908;2023-02-28T07:39:40;11.63;;;9.15;;
2750;SDS011;1383;48.362;10.908;2023-02-28T07:42:10;16.42;;;9.05;;
2750;SDS011;1383;48.362;10.908;2023-02-28T07:44:38;10.43;;;8.23;;
2750;SDS011;1383;48.362;10.908;2023-02-28T07:47:07;10.82;;;8.75;;
2750;SDS011;1383;48.362;10.908;2023-02-28T07:49:35;11.82;;;8.27;;
2750;SDS011;1383;48.362;10.908;2023-02-28T07:52:03;13.93;;;9.68;;
2750;SDS011;1383;48.362;10.908;2023-02-28T07:54:33;10.65;;;7.18;;
2750;SDS011;1383;48.362;10.908;2023-02-28T07:57:00;9.68;;;7.70;;
2750;SDS011;1383;48.362;10.908;2023-02-28T07:59:27;10.98;;;8.15;;
2750;SDS011;1383;48.362;10.908;2023-02-28T08:01:57;10.25;;;7.60;;
2750;SDS011;1383;48.362;10.908;2023-02-28T08:04:25;12.45;;;7.95;;
2750;SDS011;1383;48.362;10.908;2023-02-28T08:06:52;10.55;;;6.90;;
2750;SDS011;1383;48.362;10.908;2023-02-28T08:09:19;13.27;;;7.85;;
2750;SDS011;1383;48.362;10.908;2023-02-28T08:11:46;10.60;;;8.15;;
2750;SDS011;1383;48.362;10.908;2023-02-28T08:14:12;11.40;;;7.88;;
2750;SDS011;1383;48.362;10.908;2023-02-28T08:16:39;10.68;;;8.70;;
2750;SDS011;1383;48.362;10.908;2023-02-28T08:19:06;10.48;;;8.05;;
2750;SDS011;1383;48.362;10.908;2023-02-28T08:21:33;10.60;;;8.75;;
2750;SDS011;1383;48.362;10.908;2023-02-28T08:24:00;14.07;;;9.40;;
2750;SDS011;1383;48.362;10.908;2023-02-28T08:26:27;10.43;;;9.10;;
2750;SDS011;1383;48.362;10.908;2023-02-28T08:28:53;13.52;;;11.05;;
2750;SDS011;1383;48.362;10.908;2023-02-28T08:31:22;13.18;;;7.90;;
2750;SDS011;1383;48.362;10.908;2023-02-28T08:33:49;9.68;;;7.28;;
2750;SDS011;1383;48.362;10.908;2023-02-28T08:36:18;20.77;;;13.20;;
2750;SDS011;1383;48.362;10.908;2023-02-28T08:38:45;14.88;;;9.23;;
2750;SDS011;1383;48.362;10.908;2023-02-28T08:41:12;11.52;;;9.60;;
2750;SDS011;1383;48.362;10.908;2023-02-28T08:43:40;6.47;;;5.43;;
2750;SDS011;1383;48.362;10.908;2023-02-28T08:46:08;9.73;;;7.03;;
2750;SDS011;1383;48.362;10.908;2023-02-28T08:48:40;12.32;;;9.30;;
2750;SDS011;1383;48.362;10.908;2023-02-28T08:51:08;11.20;;;7.80;;
2750;SDS011;1383;48.362;10.908;2023-02-28T08:53:38;12.13;;;9.77;;
2750;SDS011;1383;48.362;10.908;2023-02-28T08:56:10;9.05;;;7.40;;
2750;SDS011;1383;48.362;10.908;2023-02-28T08:58:40;12.40;;;9.77;;
2750;SDS011;1383;48.362;10.908;2023-02-28T09:01:08;9.50;;;6.95;;
2750;SDS011;1383;48.362;10.908;2023-02-28T09:03:37;10.43;;;9.25;;
2750;SDS011;1383;48.362;10.908;2023-02-28T09:06:04;7.78;;;5.95;;
2750;SDS011;1383;48.362;10.908;2023-02-28T09:08:31;9.07;;;7.10;;
2750;SDS011;1383;48.362;10.908;2023-02-28T09:10:58;14.75;;;9.70;;
2750;SDS011;1383;48.362;10.908;2023-02-28T09:13:27;10.20;;;8.80;;
2750;SDS011;1383;48.362;10.908;2023-02-28T09:15:56;12.82;;;10.20;;
2750;SDS011;1383;48.362;10.908;2023-02-28T09:18:27;13.07;;;10.05;;
2750;SDS011;1383;48.362;10.908;2023-02-28T09:20:55;10.95;;;8.35;;
2750;SDS011;1383;48.362;10.908;2023-02-28T09:23:22;12.48;;;10.38;;
2750;SDS011;1383;48.362;10.908;2023-02-28T09:25:53;12.38;;;9.95;;
2750;SDS011;1383;48.362;10.908;2023-02-28T09:28:20;12.80;;;9.23;;
2750;SDS011;1383;48.362;10.908;2023-02-28T09:30:49;12.70;;;9.35;;
2750;SDS011;1383;48.362;10.908;2023-02-28T09:33:18;14.68;;;10.07;;
2750;SDS011;1383;48.362;10.908;2023-02-28T09:35:48;15.95;;;10.07;;
2750;SDS011;1383;48.362;10.908;2023-02-28T09:38:16;14.52;;;9.90;;
2750;SDS011;1383;48.362;10.908;2023-02-28T09:40:51;12.27;;;10.10;;
2750;SDS011;1383;48.362;10.908;2023-02-28T09:43:20;11.02;;;9.10;;
2750;SDS011;1383;48.362;10.908;2023-02-28T09:45:52;13.40;;;9.30;;
2750;SDS011;1383;48.362;10.908;2023-02-28T09:48:44;12.43;;;8.52;;
2750;SDS011;1383;48.362;10.908;2023-02-28T09:54:04;13.40;;;8.68;;
2750;SDS011;1383;48.362;10.908;2023-02-28T09:56:33;13.05;;;8.10;;
2750;SDS011;1383;48.362;10.908;2023-02-28T10:07:13;7.97;;;6.05;;
2750;SDS011;1383;48.362;10.908;2023-02-28T10:09:53;9.60;;;7.30;;
2750;SDS011;1383;48.362;10.908;2023-02-28T10:12:23;11.93;;;10.75;;
2750;SDS011;1383;48.362;10.908;2023-02-28T10:14:52;11.15;;;7.40;;
2750;SDS011;1383;48.362;10.908;2023-02-28T10:17:22;11.88;;;8.93;;
2750;SDS011;1383;48.362;10.908;2023-02-28T10:20:01;9.20;;;7.70;;
2750;SDS011;1383;48.362;10.908;2023-02-28T10:22:38;11.57;;;6.88;;
2750;SDS011;1383;48.362;10.908;2023-02-28T10:25:28;8.05;;;7.22;;
2750;SDS011;1383;48.362;10.908;2023-02-28T10:28:08;13.02;;;8.15;;
2750;SDS011;1383;48.362;10.908;2023-02-28T10:30:40;7.22;;;4.72;;
2750;SDS011;1383;48.362;10.908;2023-02-28T10:33:18;9.25;;;8.35;;
2750;SDS011;1383;48.362;10.908;2023-02-28T10:35:49;11.02;;;7.28;;
2750;SDS011;1383;48.362;10.908;2023-02-28T10:38:23;14.68;;;9.55;;
2750;SDS011;1383;48.362;10.908;2023-02-28T10:40:52;14.82;;;9.20;;
2750;SDS011;1383;48.362;10.908;2023-02-28T10:43:37;17.67;;;11.55;;
2750;SDS011;1383;48.362;10.908;2023-02-28T10:48:45;8.43;;;6.63;;
2750;SDS011;1383;48.362;10.908;2023-02-28T10:51:23;14.82;;;9.60;;
2750;SDS011;1383;48.362;10.908;2023-02-28T10:53:53;13.55;;;10.27;;
2750;SDS011;1383;48.362;10.908;2023-02-28T10:56:28;6.25;;;5.65;;
2750;SDS011;1383;48.362;10.908;2023-02-28T11:01:50;10.57;;;7.65;;
2750;SDS011;1383;48.362;10.908;2023-02-28T11:07:21;21.20;;;10.45;;
2750;SDS011;1383;48.362;10.908;2023-02-28T11:09:56;10.40;;;7.68;;
2750;SDS011;1383;48.362;10.908;2023-02-28T11:14:55;11.43;;;10.23;;
2750;SDS011;1383;48.362;10.908;2023-02-28T11:17:27;12.38;;;11.07;;
2750;SDS011;1383;48.362;10.908;2023-02-28T11:20:05;14.30;;;9.85;;
2750;SDS011;1383;48.362;10.908;2023-02-28T11:22:42;14.30;;;10.40;;
2750;SDS011;1383;48.362;10.908;2023-02-28T11:25:21;10.77;;;9.18;;
2750;SDS011;1383;48.362;10.908;2023-02-28T11:27:53;11.48;;;10.02;;
2750;SDS011;1383;48.362;10.908;2023-02-28T11:30:27;7.05;;;6.35;;
2750;SDS011;1383;48.362;10.908;2023-02-28T11:32:59;13.80;;;10.13;;
2750;SDS011;1383;48.362;10.908;2023-02-28T11:35:36;6.88;;;5.55;;
2750;SDS011;1383;48.362;10.908;2023-02-28T11:38:08;14.13;;;8.77;;
2750;SDS011;1383;48.362;10.908;2023-02-28T11:40:42;12.98;;;9.63;;
2750;SDS011;1383;48.362;10.908;2023-02-28T11:54:41;13.98;;;10.23;;
2750;SDS011;1383;48.362;10.908;2023-02-28T11:57:48;13.65;;;11.57;;
2750;SDS011;1383;48.362;10.908;2023-02-28T12:00:45;9.07;;;8.13;;
2750;SDS011;1383;48.362;10.908;2023-02-28T12:11:51;12.40;;;10.38;;
2750;SDS011;1383;48.362;10.908;2023-02-28T12:17:51;10.88;;;9.60;;
2750;SDS011;1383;48.362;10.908;2023-02-28T12:24:04;14.73;;;11.90;;
2750;SDS011;1383;48.362;10.908;2023-02-28T12:26:06;11.73;;;10.45;;
2750;SDS011;1383;48.362;10.908;2023-02-28T12:28:54;12.68;;;9.63;;
2750;SDS011;1383;48.362;10.908;2023-02-28T12:31:31;15.38;;;9.30;;
2750;SDS011;1383;48.362;10.908;2023-02-28T12:34:06;11.13;;;9.65;;
2750;SDS011;1383;48.362;10.908;2023-02-28T12:36:38;16.05;;;11.40;;
2750;SDS011;1383;48.362;10.908;2023-02-28T12:41:53;12.23;;;8.75;;
2750;SDS011;1383;48.362;10.908;2023-02-28T12:44:39;12.50;;;9.57;;
2750;SDS011;1383;48.362;10.908;2023-02-28T12:47:15;15.02;;;7.38;;
2750;SDS011;1383;48.362;10.908;2023-02-28T12:52:17;13.82;;;9.93;;
2750;SDS011;1383;48.362;10.908;2023-02-28T12:54:52;16.33;;;10.02;;
2750;SDS011;1383;48.362;10.908;2023-02-28T12:57:27;12.07;;;8.48;;
2750;SDS011;1383;48.362;10.908;2023-02-28T13:00:08;13.10;;;10.13;;
2750;SDS011;1383;48.362;10.908;2023-02-28T13:05:29;12.48;;;9.45;;
2750;SDS011;1383;48.362;10.908;2023-02-28T13:10:44;11.25;;;10.05;;
2750;SDS011;1383;48.362;10.908;2023-02-28T13:13:14;11.90;;;7.97;;
2750;SDS011;1383;48.362;10.908;2023-02-28T13:21:08;11.52;;;9.95;;
2750;SDS011;1383;48.362;10.908;2023-02-28T13:26:23;10.52;;;8.13;;
2750;SDS011;1383;48.362;10.908;2023-02-28T13:29:39;10.45;;;9.35;;
2750;SDS011;1383;48.362;10.908;2023-02-28T13:34:36;12.20;;;8.75;;
2750;SDS011;1383;48.362;10.908;2023-02-28T13:39:45;11.48;;;8.98;;
2750;SDS011;1383;48.362;10.908;2023-02-28T13:47:30;14.38;;;10.15;;
2750;SDS011;1383;48.362;10.908;2023-02-28T14:03:58;15.73;;;10.40;;
2750;SDS011;1383;48.362;10.908;2023-02-28T14:06:48;10.38;;;9.27;;
2750;SDS011;1383;48.362;10.908;2023-02-28T14:09:24;13.68;;;10.65;;
2750;SDS011;1383;48.362;10.908;2023-02-28T14:11:54;12.15;;;10.85;;
2750;SDS011;1383;48.362;10.908;2023-02-28T14:17:01;10.40;;;8.18;;
2750;SDS011;1383;48.362;10.908;2023-02-28T14:19:40;12.93;;;9.38;;
2750;SDS011;1383;48.362;10.908;2023-02-28T14:22:17;12.70;;;9.60;;
2750;SDS011;1383;48.362;10.908;2023-02-28T14:27:45;11.90;;;9.63;;
2750;SDS011;1383;48.362;10.908;2023-02-28T14:31:06;11.52;;;8.38;;
2750;SDS011;1383;48.362;10.908;2023-02-28T14:36:36;11.15;;;9.07;;
2750;SDS011;1383;48.362;10.908;2023-02-28T14:39:06;12.25;;;8.80;;
2750;SDS011;1383;48.362;10.908;2023-02-28T14:41:39;9.88;;;7.60;;
2750;SDS011;1383;48.362;10.908;2023-02-28T14:44:17;17.67;;;10.90;;
2750;SDS011;1383;48.362;10.908;2023-02-28T14:46:48;12.35;;;11.05;;
2750;SDS011;1383;48.362;10.908;2023-02-28T14:49:23;11.63;;;9.80;;
2750;SDS011;1383;48.362;10.908;2023-02-28T14:52:00;11.10;;;9.63;;
2750;SDS011;1383;48.362;10.908;2023-02-28T14:54:55;16.20;;;8.73;;
2750;SDS011;1383;48.362;10.908;2023-02-28T14:59:58;11.30;;;9.35;;
2750;SDS011;1383;48.362;10.908;2023-02-28T15:02:29;8.93;;;8.02;;
2750;SDS011;1383;48.362;10.908;2023-02-28T15:04:58;9.75;;;7.10;;
2750;SDS011;1383;48.362;10.908;2023-02-28T15:07:27;10.15;;;8.82;;
2750;SDS011;1383;48.362;10.908;2023-02-28T15:10:07;11.13;;;9.18;;
2750;SDS011;1383;48.362;10.908;2023-02-28T15:15:19;16.52;;;11.75;;
2750;SDS011;1383;48.362;10.908;2023-02-28T15:18:01;11.38;;;9.05;;
2750;SDS011;1383;48.362;10.908;2023-02-28T15:20:31;12.85;;;9.50;;
2750;SDS011;1383;48.362;10.908;2023-02-28T15:22:59;15.63;;;9.43;;
2750;SDS011;1383;48.362;10.908;2023-02-28T15:25:27;14.57;;;10.00;;
2750;SDS011;1383;48.362;10.908;2023-02-28T15:27:54;13.13;;;9.60;;
2750;SDS011;1383;48.362;10.908;2023-02-28T15:30:26;10.80;;;9.73;;
2750;SDS011;1383;48.362;10.908;2023-02-28T15:33:18;12.10;;;9.05;;
2750;SDS011;1383;48.362;10.908;2023-02-28T15:35:47;15.35;;;9.88;;
2750;SDS011;1383;48.362;10.908;2023-02-28T15:38:16;10.65;;;9.10;;
2750;SDS011;1383;48.362;10.908;2023-02-28T15:40:51;13.02;;;10.60;;
2750;SDS011;1383;48.362;10.908;2023-02-28T15:46:07;13.93;;;10.05;;
2750;SDS011;1383;48.362;10.908;2023-02-28T15:48:57;14.40;;;11.32;;
2750;SDS011;1383;48.362;10.908;2023-02-28T15:51:33;12.18;;;9.15;;
2750;SDS011;1383;48.362;10.908;2023-02-28T15:54:07;12.57;;;10.75;;
2750;SDS011;1383;48.362;10.908;2023-02-28T15:56:40;12.18;;;9.98;;
2750;SDS011;1383;48.362;10.908;2023-02-28T15:59:14;12.18;;;9.82;;
2750;SDS011;1383;48.362;10.908;2023-02-28T16:04:36;10.60;;;7.72;;
2750;SDS011;1383;48.362;10.908;2023-02-28T16:07:04;11.25;;;9.52;;
2750;SDS011;1383;48.362;10.908;2023-02-28T16:09:32;16.98;;;10.23;;
2750;SDS011;1383;48.362;10.908;2023-02-28T16:12:00;16.80;;;10.05;;
2750;SDS011;1383;48.362;10.908;2023-02-28T16:14:29;12.25;;;9.70;;
2750;SDS011;1383;48.362;10.908;2023-02-28T16:17:01;14.15;;;10.73;;
2750;SDS011;1383;48.362;10.908;2023-02-28T16:19:32;16.90;;;10.25;;
2750;SDS011;1383;48.362;10.908;2023-02-28T16:22:00;15.13;;;10.68;;
2750;SDS011;1383;48.362;10.908;2023-02-28T16:24:27;12.40;;;9.77;;
2750;SDS011;1383;48.362;10.908;2023-02-28T16:26:53;13.93;;;11.43;;
2750;SDS011;1383;48.362;10.908;2023-02-28T16:29:26;13.93;;;10.40;;
2750;SDS011;1383;48.362;10.908;2023-02-28T16:31:57;14.43;;;10.18;;
2750;SDS011;1383;48.362;10.908;2023-02-28T16:34:24;13.27;;;9.45;;
2750;SDS011;1383;48.362;10.908;2023-02-28T16:36:51;18.58;;;11.60;;
2750;SDS011;1383;48.362;10.908;2023-02-28T16:39:19;12.43;;;10.57;;
2750;SDS011;1383;48.362;10.908;2023-02-28T16:41:48;12.10;;;10.30;;
2750;SDS011;1383;48.362;10.908;2023-02-28T16:44:27;14.82;;;10.57;;
2750;SDS011;1383;48.362;10.908;2023-02-28T16:46:56;13.70;;;10.80;;
2750;SDS011;1383;48.362;10.908;2023-02-28T16:49:25;13.10;;;10.30;;
2750;SDS011;1383;48.362;10.908;2023-02-28T16:51:53;13.98;;;11.13;;
2750;SDS011;1383;48.362;10.908;2023-02-28T16:54:19;12.13;;;10.43;;
2750;SDS011;1383;48.362;10.908;2023-02-28T16:56:47;13.55;;;10.55;;
2750;SDS011;1383;48.362;10.908;2023-02-28T16:59:17;14.10;;;10.35;;
2750;SDS011;1383;48.362;10.908;2023-02-28T17:01:47;15.07;;;10.63;;
2750;SDS011;1383;48.362;10.908;2023-02-28T17:04:15;12.75;;;11.40;;
2750;SDS011;1383;48.362;10.908;2023-02-28T17:06:42;14.88;;;10.65;;
2750;SDS011;1383;48.362;10.908;2023-02-28T17:09:14;13.63;;;11.60;;
2750;SDS011;1383;48.362;10.908;2023-02-28T17:11:43;14.55;;;10.88;;
2750;SDS011;1383;48.362;10.908;2023-02-28T17:14:10;17.23;;;11.43;;
2750;SDS011;1383;48.362;10.908;2023-02-28T17:16:37;16.83;;;13.00;;
2750;SDS011;1383;48.362;10.908;2023-02-28T17:19:12;14.75;;;11.50;;
2750;SDS011;1383;48.362;10.908;2023-02-28T17:21:41;19.35;;;13.15;;
2750;SDS011;1383;48.362;10.908;2023-02-28T17:24:09;20.92;;;12.32;;
2750;SDS011;1383;48.362;10.908;2023-02-28T17:26:44;15.27;;;12.15;;
2750;SDS011;1383;48.362;10.908;2023-02-28T17:29:13;18.02;;;11.85;;
2750;SDS011;1383;48.362;10.908;2023-02-28T17:31:43;15.50;;;12.25;;
2750;SDS011;1383;48.362;10.908;2023-02-28T17:34:09;18.13;;;12.85;;
2750;SDS011;1383;48.362;10.908;2023-02-28T17:36:36;19.10;;;15.75;;
2750;SDS011;1383;48.362;10.908;2023-02-28T17:39:04;20.13;;;15.73;;
2750;SDS011;1383;48.362;10.908;2023-02-28T17:41:36;20.42;;;14.23;;
2750;SDS011;1383;48.362;10.908;2023-02-28T17:44:02;20.08;;;13.32;;